sensor_id;sensor_type;location;lat;lon;timestamp;temperature;humidity
26537;DHT22;14204;51.262;5.488;2022-09-06T00:00:07;22.60;99.90
26537;DHT22;14204;51.262;5.488;2022-09-06T00:02:34;22.40;99.90
26537;DHT22;14204;51.262;5.488;2022-09-06T00:05:01;22.40;99.90
26537;DHT22;14204;51.262;5.488;2022-09-06T00:07:27;22.20;99.90
26537;DHT22;14204;51.262;5.488;2022-09-06T00:09:52;22.20;99.90
26537;DHT22;14204;51.262;5.488;2022-09-06T00:12:18;22.40;99.90
26537;DHT22;14204;51.262;5.488;2022-09-06T00:14:44;22.50;99.90
26537;DHT22;14204;51.262;5.488;2022-09-06T00:17:10;22.50;99.90
26537;DHT22;14204;51.262;5.488;2022-09-06T00:19:35;22.50;99.90
26537;DHT22;14204;51.262;5.488;2022-09-06T00:22:01;22.50;99.90
26537;DHT22;14204;51.262;5.488;2022-09-06T00:24:27;22.50;99.90
26537;DHT22;14204;51.262;5.488;2022-09-06T00:26:52;22.30;99.90
26537;DHT22;14204;51.262;5.488;2022-09-06T00:29:18;22.00;99.90
26537;DHT22;14204;51.262;5.488;2022-09-06T00:31:43;22.00;99.90
26537;DHT22;14204;51.262;5.488;2022-09-06T00:34:09;22.10;99.90
26537;DHT22;14204;51.262;5.488;2022-09-06T00:36:35;22.10;99.90
26537;DHT22;14204;51.262;5.488;2022-09-06T00:39:00;22.00;99.90
26537;DHT22;14204;51.262;5.488;2022-09-06T00:41:26;22.00;99.90
26537;DHT22;14204;51.262;5.488;2022-09-06T00:43:52;21.60;99.90
26537;DHT22;14204;51.262;5.488;2022-09-06T00:46:22;21.90;99.90
26537;DHT22;14204;51.262;5.488;2022-09-06T00:48:57;21.80;99.90
26537;DHT22;14204;51.262;5.488;2022-09-06T00:51:25;21.70;99.90
26537;DHT22;14204;51.262;5.488;2022-09-06T00:53:52;21.50;99.90
26537;DHT22;14204;51.262;5.488;2022-09-06T00:56:18;21.20;99.90
26537;DHT22;14204;51.262;5.488;2022-09-06T00:58:44;21.00;99.90
26537;DHT22;14204;51.262;5.488;2022-09-06T01:01:11;21.10;99.90
26537;DHT22;14204;51.262;5.488;2022-09-06T01:03:37;21.30;99.90
26537;DHT22;14204;51.262;5.488;2022-09-06T01:09:07;21.30;99.90
26537;DHT22;14204;51.262;5.488;2022-09-06T01:11:40;21.50;99.90
26537;DHT22;14204;51.262;5.488;2022-09-06T01:14:23;21.60;99.90
26537;DHT22;14204;51.262;5.488;2022-09-06T01:37:09;21.40;99.90
26537;DHT22;14204;51.262;5.488;2022-09-06T01:39:37;21.20;99.90
26537;DHT22;14204;51.262;5.488;2022-09-06T01:42:19;21.40;99.90
26537;DHT22;14204;51.262;5.488;2022-09-06T01:44:54;21.50;99.90
26537;DHT22;14204;51.262;5.488;2022-09-06T01:53:33;21.30;99.90
26537;DHT22;14204;51.262;5.488;2022-09-06T01:58:56;21.30;99.90
26537;DHT22;14204;51.262;5.488;2022-09-06T02:04:43;21.40;99.90
26537;DHT22;14204;51.262;5.488;2022-09-06T02:07:39;21.40;99.90
26537;DHT22;14204;51.262;5.488;2022-09-06T02:10:26;21.50;99.90
26537;DHT22;14204;51.262;5.488;2022-09-06T02:12:56;21.60;99.90
26537;DHT22;14204;51.262;5.488;2022-09-06T02:15:33;21.50;99.90
26537;DHT22;14204;51.262;5.488;2022-09-06T02:18:13;21.50;99.90
26537;DHT22;14204;51.262;5.488;2022-09-06T02:20:47;21.40;99.90
26537;DHT22;14204;51.262;5.488;2022-09-06T02:23:14;21.50;99.90
26537;DHT22;14204;51.262;5.488;2022-09-06T02:25:45;21.50;99.90
26537;DHT22;14204;51.262;5.488;2022-09-06T02:28:13;21.40;99.90
26537;DHT22;14204;51.262;5.488;2022-09-06T02:30:44;21.30;99.90
26537;DHT22;14204;51.262;5.488;2022-09-06T02:33:16;21.40;99.90
26537;DHT22;14204;51.262;5.488;2022-09-06T02:35:46;21.40;99.90
26537;DHT22;14204;51.262;5.488;2022-09-06T02:38:12;21.20;99.90
26537;DHT22;14204;51.262;5.488;2022-09-06T02:40:38;21.00;99.90
26537;DHT22;14204;51.262;5.488;2022-09-06T02:43:04;21.00;99.90
26537;DHT22;14204;51.262;5.488;2022-09-06T02:45:30;20.90;99.90
26537;DHT22;14204;51.262;5.488;2022-09-06T02:47:56;21.00;99.90
26537;DHT22;14204;51.262;5.488;2022-09-06T02:50:21;20.90;99.90
26537;DHT22;14204;51.262;5.488;2022-09-06T02:53:03;20.80;99.90
26537;DHT22;14204;51.262;5.488;2022-09-06T02:55:29;20.80;99.90
26537;DHT22;14204;51.262;5.488;2022-09-06T02:57:55;20.80;99.90
26537;DHT22;14204;51.262;5.488;2022-09-06T03:00:20;20.40;99.90
26537;DHT22;14204;51.262;5.488;2022-09-06T03:02:46;20.40;99.90
26537;DHT22;14204;51.262;5.488;2022-09-06T03:05:11;20.60;99.90
26537;DHT22;14204;51.262;5.488;2022-09-06T03:07:38;20.60;99.90
26537;DHT22;14204;51.262;5.488;2022-09-06T03:10:03;20.40;99.90
26537;DHT22;14204;51.262;5.488;2022-09-06T03:12:29;20.60;99.90
26537;DHT22;14204;51.262;5.488;2022-09-06T03:14:55;20.60;99.90
26537;DHT22;14204;51.262;5.488;2022-09-06T03:17:21;20.60;99.90
26537;DHT22;14204;51.262;5.488;2022-09-06T03:19:47;20.40;99.90
26537;DHT22;14204;51.262;5.488;2022-09-06T03:22:12;20.40;99.90
26537;DHT22;14204;51.262;5.488;2022-09-06T03:24:38;20.40;99.90
26537;DHT22;14204;51.262;5.488;2022-09-06T03:27:04;20.40;99.90
26537;DHT22;14204;51.262;5.488;2022-09-06T03:29:29;20.20;99.90
26537;DHT22;14204;51.262;5.488;2022-09-06T03:31:55;20.10;99.90
26537;DHT22;14204;51.262;5.488;2022-09-06T03:34:20;20.20;99.90
26537;DHT22;14204;51.262;5.488;2022-09-06T03:36:46;20.20;99.90
26537;DHT22;14204;51.262;5.488;2022-09-06T03:39:11;20.20;99.90
26537;DHT22;14204;51.262;5.488;2022-09-06T03:41:37;20.20;99.90
26537;DHT22;14204;51.262;5.488;2022-09-06T03:44:03;20.20;99.90
26537;DHT22;14204;51.262;5.488;2022-09-06T03:46:29;20.20;99.90
26537;DHT22;14204;51.262;5.488;2022-09-06T03:48:56;20.30;99.90
26537;DHT22;14204;51.262;5.488;2022-09-06T03:51:21;20.30;99.90
26537;DHT22;14204;51.262;5.488;2022-09-06T03:53:47;20.30;99.90
26537;DHT22;14204;51.262;5.488;2022-09-06T03:56:13;20.40;99.90
26537;DHT22;14204;51.262;5.488;2022-09-06T03:58:39;20.30;99.90
26537;DHT22;14204;51.262;5.488;2022-09-06T04:01:07;20.30;99.90
26537;DHT22;14204;51.262;5.488;2022-09-06T04:03:34;20.20;99.90
26537;DHT22;14204;51.262;5.488;2022-09-06T04:06:00;20.10;99.90
26537;DHT22;14204;51.262;5.488;2022-09-06T04:08:26;20.10;99.90
26537;DHT22;14204;51.262;5.488;2022-09-06T04:10:55;20.20;99.90
26537;DHT22;14204;51.262;5.488;2022-09-06T04:13:22;20.20;99.90
26537;DHT22;14204;51.262;5.488;2022-09-06T04:15:48;20.30;99.90
26537;DHT22;14204;51.262;5.488;2022-09-06T04:18:14;20.20;99.90
26537;DHT22;14204;51.262;5.488;2022-09-06T04:20:40;20.20;99.90
26537;DHT22;14204;51.262;5.488;2022-09-06T04:23:06;20.20;99.90
26537;DHT22;14204;51.262;5.488;2022-09-06T04:25:32;20.20;99.90
26537;DHT22;14204;51.262;5.488;2022-09-06T04:27:58;20.30;99.90
26537;DHT22;14204;51.262;5.488;2022-09-06T04:30:24;20.20;99.90
26537;DHT22;14204;51.262;5.488;2022-09-06T04:32:49;20.30;99.90
26537;DHT22;14204;51.262;5.488;2022-09-06T04:35:15;20.30;99.90
26537;DHT22;14204;51.262;5.488;2022-09-06T04:37:40;20.30;99.90
26537;DHT22;14204;51.262;5.488;2022-09-06T04:40:06;20.30;99.90
26537;DHT22;14204;51.262;5.488;2022-09-06T04:42:32;20.30;99.90
26537;DHT22;14204;51.262;5.488;2022-09-06T04:44:58;20.30;99.90
26537;DHT22;14204;51.262;5.488;2022-09-06T04:47:24;20.30;99.90
26537;DHT22;14204;51.262;5.488;2022-09-06T04:49:50;20.20;99.90
26537;DHT22;14204;51.262;5.488;2022-09-06T04:52:16;20.20;99.90
26537;DHT22;14204;51.262;5.488;2022-09-06T04:54:41;20.10;99.90
26537;DHT22;14204;51.262;5.488;2022-09-06T04:57:07;20.10;99.90
26537;DHT22;14204;51.262;5.488;2022-09-06T04:59:33;20.00;99.90
26537;DHT22;14204;51.262;5.488;2022-09-06T05:01:58;20.00;99.90
26537;DHT22;14204;51.262;5.488;2022-09-06T05:04:24;20.00;99.90
26537;DHT22;14204;51.262;5.488;2022-09-06T05:06:59;19.70;99.90
26537;DHT22;14204;51.262;5.488;2022-09-06T05:09:25;19.70;99.90
26537;DHT22;14204;51.262;5.488;2022-09-06T05:11:50;19.60;99.90
26537;DHT22;14204;51.262;5.488;2022-09-06T05:14:16;19.50;99.90
26537;DHT22;14204;51.262;5.488;2022-09-06T05:16:42;19.50;99.90
26537;DHT22;14204;51.262;5.488;2022-09-06T05:19:09;19.60;99.90
26537;DHT22;14204;51.262;5.488;2022-09-06T05:21:35;19.50;99.90
26537;DHT22;14204;51.262;5.488;2022-09-06T05:24:00;19.30;99.90
26537;DHT22;14204;51.262;5.488;2022-09-06T05:26:26;19.40;99.90
26537;DHT22;14204;51.262;5.488;2022-09-06T05:28:52;19.40;99.90
26537;DHT22;14204;51.262;5.488;2022-09-06T05:31:33;19.50;99.90
26537;DHT22;14204;51.262;5.488;2022-09-06T05:33:59;19.50;99.90
26537;DHT22;14204;51.262;5.488;2022-09-06T05:36:26;19.50;99.90
26537;DHT22;14204;51.262;5.488;2022-09-06T05:38:52;19.60;99.90
26537;DHT22;14204;51.262;5.488;2022-09-06T05:41:19;19.70;99.90
26537;DHT22;14204;51.262;5.488;2022-09-06T05:43:45;19.70;99.90
26537;DHT22;14204;51.262;5.488;2022-09-06T05:46:11;19.70;99.90
26537;DHT22;14204;51.262;5.488;2022-09-06T05:48:37;19.70;99.90
26537;DHT22;14204;51.262;5.488;2022-09-06T05:51:11;19.70;99.90
26537;DHT22;14204;51.262;5.488;2022-09-06T05:53:40;19.70;99.90
26537;DHT22;14204;51.262;5.488;2022-09-06T05:56:07;19.70;99.90
26537;DHT22;14204;51.262;5.488;2022-09-06T05:58:33;19.60;99.90
26537;DHT22;14204;51.262;5.488;2022-09-06T06:01:15;19.60;99.90
26537;DHT22;14204;51.262;5.488;2022-09-06T06:03:41;19.60;99.90
26537;DHT22;14204;51.262;5.488;2022-09-06T06:06:07;19.60;99.90
26537;DHT22;14204;51.262;5.488;2022-09-06T06:08:34;19.50;99.90
26537;DHT22;14204;51.262;5.488;2022-09-06T06:11:01;19.50;99.90
26537;DHT22;14204;51.262;5.488;2022-09-06T06:13:27;19.50;99.90
26537;DHT22;14204;51.262;5.488;2022-09-06T06:15:55;19.50;99.90
26537;DHT22;14204;51.262;5.488;2022-09-06T06:18:21;19.50;99.90
26537;DHT22;14204;51.262;5.488;2022-09-06T06:20:46;19.50;99.90
26537;DHT22;14204;51.262;5.488;2022-09-06T06:23:14;19.50;99.90
26537;DHT22;14204;51.262;5.488;2022-09-06T06:25:39;19.50;99.90
26537;DHT22;14204;51.262;5.488;2022-09-06T06:28:05;19.50;99.90
26537;DHT22;14204;51.262;5.488;2022-09-06T06:30:31;19.60;99.90
26537;DHT22;14204;51.262;5.488;2022-09-06T06:32:56;19.50;99.90
26537;DHT22;14204;51.262;5.488;2022-09-06T06:35:24;19.50;99.90
26537;DHT22;14204;51.262;5.488;2022-09-06T06:37:49;19.50;99.90
26537;DHT22;14204;51.262;5.488;2022-09-06T06:40:15;19.50;99.90
26537;DHT22;14204;51.262;5.488;2022-09-06T06:42:41;19.50;99.90
26537;DHT22;14204;51.262;5.488;2022-09-06T06:45:06;19.60;99.90
26537;DHT22;14204;51.262;5.488;2022-09-06T06:47:32;19.50;99.90
26537;DHT22;14204;51.262;5.488;2022-09-06T06:49:58;19.60;99.90
26537;DHT22;14204;51.262;5.488;2022-09-06T06:52:23;19.70;99.90
26537;DHT22;14204;51.262;5.488;2022-09-06T06:54:50;19.80;99.90
26537;DHT22;14204;51.262;5.488;2022-09-06T06:57:15;19.80;99.90
26537;DHT22;14204;51.262;5.488;2022-09-06T06:59:41;19.90;99.90
26537;DHT22;14204;51.262;5.488;2022-09-06T07:02:06;20.00;99.90
26537;DHT22;14204;51.262;5.488;2022-09-06T07:04:32;20.00;99.90
26537;DHT22;14204;51.262;5.488;2022-09-06T07:06:58;20.00;99.90
26537;DHT22;14204;51.262;5.488;2022-09-06T07:09:23;20.10;99.90
26537;DHT22;14204;51.262;5.488;2022-09-06T07:11:50;20.10;99.90
26537;DHT22;14204;51.262;5.488;2022-09-06T07:14:16;20.00;99.90
26537;DHT22;14204;51.262;5.488;2022-09-06T07:16:42;20.10;99.90
26537;DHT22;14204;51.262;5.488;2022-09-06T07:19:08;20.10;99.90
26537;DHT22;14204;51.262;5.488;2022-09-06T07:21:34;20.20;99.90
26537;DHT22;14204;51.262;5.488;2022-09-06T07:24:00;20.20;99.90
26537;DHT22;14204;51.262;5.488;2022-09-06T07:26:28;20.20;99.90
26537;DHT22;14204;51.262;5.488;2022-09-06T07:28:55;20.30;99.90
26537;DHT22;14204;51.262;5.488;2022-09-06T07:31:21;20.40;99.90
26537;DHT22;14204;51.262;5.488;2022-09-06T07:33:47;20.40;99.90
26537;DHT22;14204;51.262;5.488;2022-09-06T07:36:13;20.40;99.90
26537;DHT22;14204;51.262;5.488;2022-09-06T07:38:38;20.50;99.90
26537;DHT22;14204;51.262;5.488;2022-09-06T07:41:06;20.50;99.90
26537;DHT22;14204;51.262;5.488;2022-09-06T07:43:32;20.70;99.90
26537;DHT22;14204;51.262;5.488;2022-09-06T07:46:04;20.70;99.90
26537;DHT22;14204;51.262;5.488;2022-09-06T07:48:32;20.80;99.90
26537;DHT22;14204;51.262;5.488;2022-09-06T07:53:33;21.00;99.90
26537;DHT22;14204;51.262;5.488;2022-09-06T07:56:00;21.10;99.90
26537;DHT22;14204;51.262;5.488;2022-09-06T07:58:27;21.20;99.90
26537;DHT22;14204;51.262;5.488;2022-09-06T08:00:53;21.20;99.90
26537;DHT22;14204;51.262;5.488;2022-09-06T08:03:19;21.30;99.90
26537;DHT22;14204;51.262;5.488;2022-09-06T08:05:48;21.40;99.90
26537;DHT22;14204;51.262;5.488;2022-09-06T08:08:14;21.60;99.90
26537;DHT22;14204;51.262;5.488;2022-09-06T08:10:40;21.70;99.90
26537;DHT22;14204;51.262;5.488;2022-09-06T08:13:05;21.70;99.90
26537;DHT22;14204;51.262;5.488;2022-09-06T08:15:31;21.70;99.90
26537;DHT22;14204;51.262;5.488;2022-09-06T08:17:57;21.90;99.90
26537;DHT22;14204;51.262;5.488;2022-09-06T08:20:23;21.90;99.90
26537;DHT22;14204;51.262;5.488;2022-09-06T08:22:48;22.00;99.90
26537;DHT22;14204;51.262;5.488;2022-09-06T08:25:14;22.10;99.90
26537;DHT22;14204;51.262;5.488;2022-09-06T08:27:39;22.10;99.90
26537;DHT22;14204;51.262;5.488;2022-09-06T08:30:05;22.30;99.90
26537;DHT22;14204;51.262;5.488;2022-09-06T08:32:34;22.40;99.90
26537;DHT22;14204;51.262;5.488;2022-09-06T08:35:00;22.50;99.90
26537;DHT22;14204;51.262;5.488;2022-09-06T08:37:26;22.60;99.90
26537;DHT22;14204;51.262;5.488;2022-09-06T08:39:52;22.80;99.90
26537;DHT22;14204;51.262;5.488;2022-09-06T08:42:17;22.80;99.90
26537;DHT22;14204;51.262;5.488;2022-09-06T08:44:49;22.80;99.90
26537;DHT22;14204;51.262;5.488;2022-09-06T08:47:18;22.90;99.90
26537;DHT22;14204;51.262;5.488;2022-09-06T08:49:46;23.10;99.90
26537;DHT22;14204;51.262;5.488;2022-09-06T08:52:22;23.20;99.90
26537;DHT22;14204;51.262;5.488;2022-09-06T09:00:15;23.40;99.90
26537;DHT22;14204;51.262;5.488;2022-09-06T09:02:46;23.40;99.90
26537;DHT22;14204;51.262;5.488;2022-09-06T09:05:33;23.50;99.90
26537;DHT22;14204;51.262;5.488;2022-09-06T09:08:22;23.70;99.90
26537;DHT22;14204;51.262;5.488;2022-09-06T09:11:01;23.70;99.90
26537;DHT22;14204;51.262;5.488;2022-09-06T09:16:11;24.00;99.90
26537;DHT22;14204;51.262;5.488;2022-09-06T09:18:40;24.10;99.90
26537;DHT22;14204;51.262;5.488;2022-09-06T09:21:08;24.10;99.90
26537;DHT22;14204;51.262;5.488;2022-09-06T09:23:34;24.20;99.90
26537;DHT22;14204;51.262;5.488;2022-09-06T09:26:06;24.40;99.90
26537;DHT22;14204;51.262;5.488;2022-09-06T09:28:34;24.50;99.90
26537;DHT22;14204;51.262;5.488;2022-09-06T09:31:00;24.60;99.90
26537;DHT22;14204;51.262;5.488;2022-09-06T09:33:35;24.80;99.90
26537;DHT22;14204;51.262;5.488;2022-09-06T09:36:10;25.00;99.90
26537;DHT22;14204;51.262;5.488;2022-09-06T09:38:46;25.10;99.90
26537;DHT22;14204;51.262;5.488;2022-09-06T09:41:31;25.30;99.90
26537;DHT22;14204;51.262;5.488;2022-09-06T09:43:59;25.30;99.90
26537;DHT22;14204;51.262;5.488;2022-09-06T09:46:34;25.50;99.90
26537;DHT22;14204;51.262;5.488;2022-09-06T09:49:13;25.70;99.90
26537;DHT22;14204;51.262;5.488;2022-09-06T09:52:02;25.90;99.90
26537;DHT22;14204;51.262;5.488;2022-09-06T09:54:30;26.10;99.90
26537;DHT22;14204;51.262;5.488;2022-09-06T09:56:56;26.10;99.90
26537;DHT22;14204;51.262;5.488;2022-09-06T09:59:23;26.10;99.90
26537;DHT22;14204;51.262;5.488;2022-09-06T10:01:53;26.30;99.90
26537;DHT22;14204;51.262;5.488;2022-09-06T10:04:35;26.50;99.90
26537;DHT22;14204;51.262;5.488;2022-09-06T10:07:15;26.60;99.90
26537;DHT22;14204;51.262;5.488;2022-09-06T10:09:48;26.70;99.90
26537;DHT22;14204;51.262;5.488;2022-09-06T10:12:26;26.90;99.90
26537;DHT22;14204;51.262;5.488;2022-09-06T10:14:53;26.60;99.90
26537;DHT22;14204;51.262;5.488;2022-09-06T10:19:59;26.70;99.90
26537;DHT22;14204;51.262;5.488;2022-09-06T10:22:31;27.10;99.90
26537;DHT22;14204;51.262;5.488;2022-09-06T10:27:31;27.40;99.90
26537;DHT22;14204;51.262;5.488;2022-09-06T10:30:07;27.60;99.90
26537;DHT22;14204;51.262;5.488;2022-09-06T10:35:30;27.70;99.90
26537;DHT22;14204;51.262;5.488;2022-09-06T10:43:53;28.00;99.90
26537;DHT22;14204;51.262;5.488;2022-09-06T10:46:24;27.80;99.90
26537;DHT22;14204;51.262;5.488;2022-09-06T10:48:51;27.70;99.90
26537;DHT22;14204;51.262;5.488;2022-09-06T10:51:39;27.60;99.90
26537;DHT22;14204;51.262;5.488;2022-09-06T10:54:11;27.50;99.90
26537;DHT22;14204;51.262;5.488;2022-09-06T10:56:50;27.70;99.90
26537;DHT22;14204;51.262;5.488;2022-09-06T10:59:50;27.80;99.90
26537;DHT22;14204;51.262;5.488;2022-09-06T11:03:38;27.90;99.90
26537;DHT22;14204;51.262;5.488;2022-09-06T11:05:50;28.10;99.90
26537;DHT22;14204;51.262;5.488;2022-09-06T11:08:30;28.30;99.90
26537;DHT22;14204;51.262;5.488;2022-09-06T11:11:02;28.40;99.90
26537;DHT22;14204;51.262;5.488;2022-09-06T11:13:29;28.60;99.90
26537;DHT22;14204;51.262;5.488;2022-09-06T11:16:19;28.70;99.90
26537;DHT22;14204;51.262;5.488;2022-09-06T11:19:18;28.90;99.90
26537;DHT22;14204;51.262;5.488;2022-09-06T11:22:10;29.00;99.90
26537;DHT22;14204;51.262;5.488;2022-09-06T11:29:41;29.20;99.40
26537;DHT22;14204;51.262;5.488;2022-09-06T11:32:36;29.30;99.90
26537;DHT22;14204;51.262;5.488;2022-09-06T11:35:06;29.40;96.60
26537;DHT22;14204;51.262;5.488;2022-09-06T11:37:38;29.40;96.90
26537;DHT22;14204;51.262;5.488;2022-09-06T11:40:19;29.50;96.80
26537;DHT22;14204;51.262;5.488;2022-09-06T11:45:37;29.50;97.30
26537;DHT22;14204;51.262;5.488;2022-09-06T11:53:28;29.60;97.30
26537;DHT22;14204;51.262;5.488;2022-09-06T12:06:19;29.70;95.70
26537;DHT22;14204;51.262;5.488;2022-09-06T12:08:49;29.80;95.40
26537;DHT22;14204;51.262;5.488;2022-09-06T12:11:36;29.80;95.60
26537;DHT22;14204;51.262;5.488;2022-09-06T12:14:04;29.80;95.50
26537;DHT22;14204;51.262;5.488;2022-09-06T12:19:53;29.80;94.90
26537;DHT22;14204;51.262;5.488;2022-09-06T12:24:52;30.00;95.00
26537;DHT22;14204;51.262;5.488;2022-09-06T12:27:23;30.10;95.60
26537;DHT22;14204;51.262;5.488;2022-09-06T12:30:01;30.00;94.20
26537;DHT22;14204;51.262;5.488;2022-09-06T12:32:34;30.00;94.10
26537;DHT22;14204;51.262;5.488;2022-09-06T12:35:04;29.90;93.80
26537;DHT22;14204;51.262;5.488;2022-09-06T12:37:33;30.00;94.30
26537;DHT22;14204;51.262;5.488;2022-09-06T12:39:59;30.00;95.60
26537;DHT22;14204;51.262;5.488;2022-09-06T12:42:24;30.00;94.60
26537;DHT22;14204;51.262;5.488;2022-09-06T12:44:51;30.00;94.30
26537;DHT22;14204;51.262;5.488;2022-09-06T12:47:32;30.10;93.70
26537;DHT22;14204;51.262;5.488;2022-09-06T12:53:03;30.30;94.20
26537;DHT22;14204;51.262;5.488;2022-09-06T12:55:33;30.20;93.30
26537;DHT22;14204;51.262;5.488;2022-09-06T12:58:09;30.20;93.50
26537;DHT22;14204;51.262;5.488;2022-09-06T13:00:49;30.30;93.50
26537;DHT22;14204;51.262;5.488;2022-09-06T13:06:03;30.40;92.70
26537;DHT22;14204;51.262;5.488;2022-09-06T13:10:58;30.30;92.90
26537;DHT22;14204;51.262;5.488;2022-09-06T13:13:25;30.40;93.20
26537;DHT22;14204;51.262;5.488;2022-09-06T13:15:51;30.50;94.50
26537;DHT22;14204;51.262;5.488;2022-09-06T13:21:04;30.40;92.60
26537;DHT22;14204;51.262;5.488;2022-09-06T13:23:41;30.50;92.90
26537;DHT22;14204;51.262;5.488;2022-09-06T13:26:08;30.30;92.70
26537;DHT22;14204;51.262;5.488;2022-09-06T13:28:34;30.40;94.00
26537;DHT22;14204;51.262;5.488;2022-09-06T13:31:20;30.40;93.00
26537;DHT22;14204;51.262;5.488;2022-09-06T13:33:56;30.50;93.60
26537;DHT22;14204;51.262;5.488;2022-09-06T13:36:25;30.50;92.20
26537;DHT22;14204;51.262;5.488;2022-09-06T13:38:52;30.50;93.50
26537;DHT22;14204;51.262;5.488;2022-09-06T13:44:18;30.40;92.80
26537;DHT22;14204;51.262;5.488;2022-09-06T13:46:41;30.60;92.80
26537;DHT22;14204;51.262;5.488;2022-09-06T13:49:07;30.50;92.20
26537;DHT22;14204;51.262;5.488;2022-09-06T13:51:33;30.50;92.70
26537;DHT22;14204;51.262;5.488;2022-09-06T13:54:18;30.40;91.40
26537;DHT22;14204;51.262;5.488;2022-09-06T13:56:44;30.30;91.40
26537;DHT22;14204;51.262;5.488;2022-09-06T13:59:10;30.30;90.90
26537;DHT22;14204;51.262;5.488;2022-09-06T14:01:41;30.30;91.80
26537;DHT22;14204;51.262;5.488;2022-09-06T14:04:10;30.30;91.40
26537;DHT22;14204;51.262;5.488;2022-09-06T14:06:37;30.30;92.80
26537;DHT22;14204;51.262;5.488;2022-09-06T14:09:03;30.30;92.00
26537;DHT22;14204;51.262;5.488;2022-09-06T14:11:29;30.30;91.70
26537;DHT22;14204;51.262;5.488;2022-09-06T14:13:54;30.20;92.90
26537;DHT22;14204;51.262;5.488;2022-09-06T14:16:20;30.30;93.30
26537;DHT22;14204;51.262;5.488;2022-09-06T14:18:46;30.20;91.30
26537;DHT22;14204;51.262;5.488;2022-09-06T14:21:12;30.20;91.90
26537;DHT22;14204;51.262;5.488;2022-09-06T14:23:37;30.00;92.50
26537;DHT22;14204;51.262;5.488;2022-09-06T14:26:03;30.00;92.40
26537;DHT22;14204;51.262;5.488;2022-09-06T14:28:31;30.10;93.00
26537;DHT22;14204;51.262;5.488;2022-09-06T14:30:57;30.20;93.10
26537;DHT22;14204;51.262;5.488;2022-09-06T14:33:23;30.10;93.00
26537;DHT22;14204;51.262;5.488;2022-09-06T14:35:48;30.10;92.60
26537;DHT22;14204;51.262;5.488;2022-09-06T14:38:14;30.10;90.60
26537;DHT22;14204;51.262;5.488;2022-09-06T14:40:40;29.80;92.00
26537;DHT22;14204;51.262;5.488;2022-09-06T14:43:09;29.80;92.40
26537;DHT22;14204;51.262;5.488;2022-09-06T14:45:35;29.80;91.20
26537;DHT22;14204;51.262;5.488;2022-09-06T14:48:02;29.80;91.80
26537;DHT22;14204;51.262;5.488;2022-09-06T14:50:28;29.80;91.70
26537;DHT22;14204;51.262;5.488;2022-09-06T14:52:55;29.70;91.60
26537;DHT22;14204;51.262;5.488;2022-09-06T14:55:21;29.70;91.80
26537;DHT22;14204;51.262;5.488;2022-09-06T14:57:47;29.70;91.50
26537;DHT22;14204;51.262;5.488;2022-09-06T15:00:13;29.70;91.50
26537;DHT22;14204;51.262;5.488;2022-09-06T15:02:39;29.60;92.40
26537;DHT22;14204;51.262;5.488;2022-09-06T15:05:05;29.70;91.40
26537;DHT22;14204;51.262;5.488;2022-09-06T15:07:31;29.70;92.00
26537;DHT22;14204;51.262;5.488;2022-09-06T15:09:57;29.70;92.30
26537;DHT22;14204;51.262;5.488;2022-09-06T15:12:22;29.70;91.40
26537;DHT22;14204;51.262;5.488;2022-09-06T15:14:48;29.70;91.50
26537;DHT22;14204;51.262;5.488;2022-09-06T15:17:14;29.60;90.00
26537;DHT22;14204;51.262;5.488;2022-09-06T15:19:39;29.60;91.20
26537;DHT22;14204;51.262;5.488;2022-09-06T15:22:05;29.60;89.20
26537;DHT22;14204;51.262;5.488;2022-09-06T15:24:32;29.40;88.50
26537;DHT22;14204;51.262;5.488;2022-09-06T15:26:58;29.50;90.20
26537;DHT22;14204;51.262;5.488;2022-09-06T15:29:24;29.40;90.20
26537;DHT22;14204;51.262;5.488;2022-09-06T15:31:51;29.40;88.10
26537;DHT22;14204;51.262;5.488;2022-09-06T15:34:21;29.30;90.10
26537;DHT22;14204;51.262;5.488;2022-09-06T15:36:48;29.30;88.40
26537;DHT22;14204;51.262;5.488;2022-09-06T15:39:14;29.20;90.10
26537;DHT22;14204;51.262;5.488;2022-09-06T15:41:40;29.00;90.80
26537;DHT22;14204;51.262;5.488;2022-09-06T15:44:13;28.90;91.60
26537;DHT22;14204;51.262;5.488;2022-09-06T15:49:07;29.00;93.30
26537;DHT22;14204;51.262;5.488;2022-09-06T15:51:34;28.80;92.90
26537;DHT22;14204;51.262;5.488;2022-09-06T15:54:01;28.80;93.50
26537;DHT22;14204;51.262;5.488;2022-09-06T15:56:27;28.80;93.90
26537;DHT22;14204;51.262;5.488;2022-09-06T15:58:52;28.70;94.80
26537;DHT22;14204;51.262;5.488;2022-09-06T16:01:20;28.60;95.10
26537;DHT22;14204;51.262;5.488;2022-09-06T16:03:54;28.60;95.10
26537;DHT22;14204;51.262;5.488;2022-09-06T16:06:24;28.40;95.10
26537;DHT22;14204;51.262;5.488;2022-09-06T16:08:55;28.30;95.20
26537;DHT22;14204;51.262;5.488;2022-09-06T16:11:23;28.40;95.30
26537;DHT22;14204;51.262;5.488;2022-09-06T16:13:48;28.40;95.70
26537;DHT22;14204;51.262;5.488;2022-09-06T16:16:15;28.30;96.40
26537;DHT22;14204;51.262;5.488;2022-09-06T16:18:44;28.40;96.80
26537;DHT22;14204;51.262;5.488;2022-09-06T16:21:22;28.40;97.30
26537;DHT22;14204;51.262;5.488;2022-09-06T16:24:02;28.40;98.30
26537;DHT22;14204;51.262;5.488;2022-09-06T16:26:31;28.30;98.30
26537;DHT22;14204;51.262;5.488;2022-09-06T16:28:58;28.30;98.60
26537;DHT22;14204;51.262;5.488;2022-09-06T16:31:24;28.30;99.00
26537;DHT22;14204;51.262;5.488;2022-09-06T16:33:50;28.30;99.60
26537;DHT22;14204;51.262;5.488;2022-09-06T16:36:17;28.10;98.20
26537;DHT22;14204;51.262;5.488;2022-09-06T16:38:43;28.00;97.10
26537;DHT22;14204;51.262;5.488;2022-09-06T16:41:21;27.80;97.40
26537;DHT22;14204;51.262;5.488;2022-09-06T16:43:50;27.80;97.50
26537;DHT22;14204;51.262;5.488;2022-09-06T16:46:20;27.80;97.40
26537;DHT22;14204;51.262;5.488;2022-09-06T16:48:56;27.70;97.70
26537;DHT22;14204;51.262;5.488;2022-09-06T16:51:23;27.70;98.30
26537;DHT22;14204;51.262;5.488;2022-09-06T16:53:50;27.70;98.30
26537;DHT22;14204;51.262;5.488;2022-09-06T16:56:19;27.70;98.10
26537;DHT22;14204;51.262;5.488;2022-09-06T16:58:50;27.70;98.10
26537;DHT22;14204;51.262;5.488;2022-09-06T17:01:16;27.70;98.10
26537;DHT22;14204;51.262;5.488;2022-09-06T17:03:42;27.70;98.10
26537;DHT22;14204;51.262;5.488;2022-09-06T17:06:08;27.60;97.80
26537;DHT22;14204;51.262;5.488;2022-09-06T17:08:35;27.60;97.70
26537;DHT22;14204;51.262;5.488;2022-09-06T17:11:19;27.50;97.80
26537;DHT22;14204;51.262;5.488;2022-09-06T17:13:49;27.40;97.70
26537;DHT22;14204;51.262;5.488;2022-09-06T17:16:15;27.40;97.00
26537;DHT22;14204;51.262;5.488;2022-09-06T17:19:00;27.30;96.70
26537;DHT22;14204;51.262;5.488;2022-09-06T17:21:28;27.30;96.90
26537;DHT22;14204;51.262;5.488;2022-09-06T17:23:53;27.10;97.20
26537;DHT22;14204;51.262;5.488;2022-09-06T17:26:20;27.10;97.20